Terminal Aerodrome Forecast
Issued by NWS Louisville, KY

Home | Current Version | Previous Version | Text Only | Print | Product List | Glossary On
Versions: 1 2 3 4 5 6 7 8 9 10 11 12 13 14 15 16 17 18 19 20
000
FTUS43 KLMK 041100
TAFLEX
TAF
KLEX 041120Z 0412/0512 34005KT 4SM -RA BR SCT008 BKN040
      TEMPO 0412/0415 2SM -RA BR BKN007
     FM041500 36005KT 2SM -RA BR BKN007
     FM041800 36009KT 2SM -RAPL BR BKN007
     FM041900 36009KT 2SM -PL BR BKN007
     FM042200 36010KT 1SM -SNPL BR BKN004
     FM042300 36010KT 1SM -SN BR BKN004=

USA.gov is the U.S. government's official web portal to all federal, state and local government web resources and services.